createdAt,value
2022-12-19T00:00:50.323Z,-6.43
2022-12-19T00:03:26.687Z,-6.49
2022-12-19T00:05:54.505Z,-6.56
2022-12-19T00:08:22.194Z,-6.61
2022-12-19T00:10:59.485Z,-6.66
2022-12-19T00:13:33.646Z,-6.71
2022-12-19T00:16:13.563Z,-6.77
2022-12-19T00:18:43.032Z,-6.81
2022-12-19T00:21:13.316Z,-6.86
2022-12-19T00:23:41.369Z,-6.89
2022-12-19T00:26:12.898Z,-6.92
2022-12-19T00:28:43.117Z,-6.93
2022-12-19T00:31:11.805Z,-6.91
2022-12-19T00:33:43.294Z,-6.87
2022-12-19T00:36:20.967Z,-6.82
2022-12-19T00:38:53.324Z,-6.78
2022-12-19T00:41:25.539Z,-6.72
2022-12-19T00:43:57.058Z,-6.67
2022-12-19T00:46:26.033Z,-6.64
2022-12-19T00:48:54.571Z,-6.61
2022-12-19T00:51:25.046Z,-6.58
2022-12-19T00:53:55.305Z,-6.56
2022-12-19T00:56:59.931Z,-6.56
2022-12-19T00:59:29.889Z,-6.57
2022-12-19T01:02:03.125Z,-6.70
2022-12-19T01:04:35.662Z,-6.76
2022-12-19T01:07:12.226Z,-6.77
2022-12-19T01:09:40.131Z,-6.77
2022-12-19T01:12:26.992Z,-6.77
2022-12-19T01:14:57.725Z,-6.79
2022-12-19T01:17:43.616Z,-6.86
2022-12-19T01:20:16.453Z,-6.89
2022-12-19T01:22:45.590Z,-6.93
2022-12-19T01:25:15.152Z,-6.94
2022-12-19T01:27:43.008Z,-6.97
2022-12-19T01:30:11.698Z,-7.02
2022-12-19T01:32:40.818Z,-7.08
2022-12-19T01:35:09.957Z,-7.15
2022-12-19T01:37:51.169Z,-7.24
2022-12-19T01:40:21.397Z,-7.31
2022-12-19T01:42:50.138Z,-7.37
2022-12-19T01:45:31.843Z,-7.44
2022-12-19T01:48:13.940Z,-7.48
2022-12-19T01:51:01.016Z,-7.50
2022-12-19T01:53:48.816Z,-7.52
2022-12-19T01:56:24.635Z,-7.51
2022-12-19T01:59:06.000Z,-7.49
2022-12-19T02:01:51.079Z,-7.46
2022-12-19T02:04:20.369Z,-7.41
2022-12-19T02:06:49.007Z,-7.35
2022-12-19T02:09:17.700Z,-7.31
2022-12-19T02:11:48.633Z,-7.29
2022-12-19T02:14:16.809Z,-7.26
2022-12-19T02:17:11.027Z,-7.21
2022-12-19T02:20:11.517Z,-7.17
2022-12-19T02:23:01.435Z,-7.16
2022-12-19T02:25:51.258Z,-7.14
2022-12-19T02:29:01.419Z,-7.07
2022-12-19T02:36:05.808Z,-6.92
2022-12-19T02:39:29.712Z,-6.94
2022-12-19T02:42:32.081Z,-6.96
2022-12-19T02:45:28.931Z,-6.98
2022-12-19T02:48:38.823Z,-6.96
2022-12-19T02:51:08.527Z,-7.00
2022-12-19T02:54:29.985Z,-7.07
2022-12-19T02:57:55.244Z,-7.14
2022-12-19T03:00:28.747Z,-7.22
2022-12-19T03:03:50.381Z,-7.27
2022-12-19T03:06:56.087Z,-7.34
2022-12-19T03:16:23.147Z,-7.65
2022-12-19T03:18:59.755Z,-7.70
2022-12-19T03:39:34.572Z,-7.12
2022-12-19T03:42:11.482Z,-6.93
2022-12-19T03:45:10.352Z,-6.78
2022-12-19T03:47:51.077Z,-6.64
2022-12-19T03:50:55.182Z,-6.54
2022-12-19T03:53:54.988Z,-6.46
2022-12-19T03:57:09.098Z,-6.37
2022-12-19T04:00:13.238Z,-6.31
2022-12-19T04:03:32.030Z,-6.46
2022-12-19T04:06:12.403Z,-6.45
2022-12-19T04:09:16.768Z,-6.45
2022-12-19T04:15:42.596Z,-6.45
2022-12-19T04:24:15.631Z,-6.51
2022-12-19T04:26:37.563Z,-6.57
2022-12-19T04:29:38.532Z,-6.64
2022-12-19T04:32:25.619Z,-6.70
2022-12-19T04:38:36.588Z,-6.68
2022-12-19T04:41:04.671Z,-6.71
2022-12-19T04:43:32.434Z,-6.71
2022-12-19T04:46:00.446Z,-6.71
2022-12-19T04:48:28.465Z,-6.72
2022-12-19T04:50:56.680Z,-6.73
2022-12-19T04:53:24.506Z,-6.74
2022-12-19T04:56:00.790Z,-6.76
2022-12-19T04:58:29.529Z,-6.77
2022-12-19T05:01:03.089Z,-6.76
2022-12-19T05:03:30.979Z,-6.73
2022-12-19T05:06:13.900Z,-6.72
2022-12-19T05:08:42.953Z,-6.73
2022-12-19T05:11:17.520Z,-6.74
2022-12-19T05:13:50.020Z,-6.70
2022-12-19T05:16:18.554Z,-6.65
2022-12-19T05:18:46.584Z,-6.62
2022-12-19T05:21:14.490Z,-6.60
2022-12-19T05:23:42.755Z,-6.58
2022-12-19T05:26:11.963Z,-6.59
2022-12-19T05:28:39.880Z,-6.58
2022-12-19T05:31:12.316Z,-6.59
2022-12-19T05:33:41.795Z,-6.60
2022-12-19T05:36:10.958Z,-6.62
2022-12-19T05:38:38.798Z,-6.67
2022-12-19T05:41:09.059Z,-6.74
2022-12-19T05:43:37.308Z,-6.77
2022-12-19T05:46:07.068Z,-6.77
2022-12-19T05:48:36.610Z,-6.78
2022-12-19T05:51:05.125Z,-6.82
2022-12-19T05:53:36.572Z,-6.84
2022-12-19T05:56:08.701Z,-6.88
2022-12-19T05:58:37.317Z,-6.92
2022-12-19T06:01:09.246Z,-6.93
2022-12-19T06:03:37.510Z,-6.97
2022-12-19T06:06:09.586Z,-7.01
2022-12-19T06:08:37.608Z,-7.06
2022-12-19T06:11:07.336Z,-7.08
2022-12-19T06:13:36.613Z,-7.09
2022-12-19T06:16:07.738Z,-7.12
2022-12-19T06:18:40.428Z,-7.12
2022-12-19T06:21:14.595Z,-7.10
2022-12-19T06:23:43.401Z,-7.05
2022-12-19T06:26:18.520Z,-6.99
2022-12-19T06:28:48.998Z,-6.91
2022-12-19T06:31:17.973Z,-6.84
2022-12-19T06:33:46.005Z,-6.74
2022-12-19T06:36:20.004Z,-6.60
2022-12-19T06:38:48.595Z,-6.45
2022-12-19T06:41:27.645Z,-6.37
2022-12-19T06:44:04.964Z,-6.39
2022-12-19T06:46:33.176Z,-6.33
2022-12-19T06:49:01.374Z,-6.24
2022-12-19T06:51:29.761Z,-6.20
2022-12-19T06:53:57.729Z,-6.19
2022-12-19T06:56:25.775Z,-6.21
2022-12-19T06:58:56.668Z,-6.21
2022-12-19T07:01:41.200Z,-6.21
2022-12-19T07:04:11.503Z,-6.22
2022-12-19T07:06:42.345Z,-6.18
2022-12-19T07:09:12.573Z,-6.15
2022-12-19T07:11:41.071Z,-6.11
2022-12-19T07:14:08.824Z,-6.05
2022-12-19T07:16:43.183Z,-6.03
2022-12-19T07:20:07.296Z,-6.02
2022-12-19T07:27:39.224Z,-5.78
2022-12-19T07:30:13.013Z,-5.68
2022-12-19T07:32:43.828Z,-5.59
2022-12-19T07:35:25.728Z,-5.49
2022-12-19T07:38:02.587Z,-5.40
2022-12-19T07:40:30.571Z,-5.30
2022-12-19T07:43:00.949Z,-5.18
2022-12-19T07:45:32.758Z,-5.12
2022-12-19T07:48:04.811Z,-5.04
2022-12-19T07:50:40.686Z,-5.00
2022-12-19T07:53:10.675Z,-4.97
2022-12-19T07:55:38.637Z,-4.95
2022-12-19T07:58:06.546Z,-4.86
2022-12-19T08:00:35.793Z,-4.77
2022-12-19T08:03:04.400Z,-4.68
2022-12-19T08:05:34.901Z,-4.61
2022-12-19T08:08:03.313Z,-4.55
2022-12-19T08:10:31.184Z,-4.52
2022-12-19T08:12:59.020Z,-4.46
2022-12-19T08:15:27.476Z,-4.36
2022-12-19T08:17:55.905Z,-4.29
2022-12-19T08:20:23.742Z,-4.26
2022-12-19T08:22:51.604Z,-4.20
2022-12-19T08:25:19.495Z,-4.17
2022-12-19T08:27:47.249Z,-4.15
2022-12-19T08:30:15.271Z,-4.11
2022-12-19T08:32:45.259Z,-4.10
2022-12-19T08:35:13.312Z,-4.16
2022-12-19T08:37:41.375Z,-4.17
2022-12-19T08:40:11.349Z,-4.20
2022-12-19T08:42:39.177Z,-4.15
2022-12-19T08:45:09.413Z,-4.08
2022-12-19T08:47:37.278Z,-4.04
2022-12-19T08:50:05.599Z,-4.00
2022-12-19T08:52:35.733Z,-4.00
2022-12-19T08:55:04.685Z,-3.97
2022-12-19T08:57:31.592Z,-3.90
2022-12-19T08:59:59.423Z,-3.86
2022-12-19T09:02:28.473Z,-3.81
2022-12-19T09:05:58.291Z,-3.75
2022-12-19T09:07:44.698Z,-3.70
2022-12-19T09:10:12.504Z,-3.65
2022-12-19T09:12:40.356Z,-3.61
2022-12-19T09:15:08.609Z,-3.59
2022-12-19T09:17:37.050Z,-3.55
2022-12-19T09:20:05.656Z,-3.46
2022-12-19T09:22:33.585Z,-3.37
2022-12-19T09:25:01.353Z,-3.25
2022-12-19T09:27:29.196Z,-3.15
2022-12-19T09:29:57.091Z,-3.07
2022-12-19T09:32:24.949Z,-2.99
2022-12-19T09:34:52.738Z,-2.92
2022-12-19T09:37:20.715Z,-2.83
2022-12-19T09:39:50.552Z,-2.75
2022-12-19T09:42:50.131Z,-2.69
2022-12-19T09:45:38.594Z,-2.62
2022-12-19T09:48:22.465Z,-2.52
2022-12-19T09:51:09.521Z,-2.39
2022-12-19T09:53:58.600Z,-2.25
2022-12-19T09:56:45.146Z,-2.12
2022-12-19T09:59:34.259Z,-1.99
2022-12-19T10:02:33.812Z,-1.88
2022-12-19T10:05:14.304Z,-1.73
2022-12-19T10:08:09.446Z,-1.58
2022-12-19T10:12:36.267Z,-1.44
2022-12-19T10:14:11.100Z,-1.28
2022-12-19T10:17:23.560Z,-1.11
2022-12-19T10:20:13.384Z,-0.87
2022-12-19T10:23:19.653Z,-0.68
2022-12-19T10:26:06.425Z,-0.52
2022-12-19T10:29:01.253Z,-0.35
2022-12-19T10:31:57.543Z,-0.17
2022-12-19T10:34:38.495Z,0.04
2022-12-19T10:37:29.629Z,0.22
2022-12-19T10:40:27.978Z,0.43
2022-12-19T10:43:21.629Z,0.63
2022-12-19T10:46:02.949Z,0.88
2022-12-19T10:48:31.901Z,1.08
2022-12-19T10:51:06.078Z,1.21
2022-12-19T10:53:34.545Z,1.17
2022-12-19T10:56:16.133Z,1.35
2022-12-19T10:58:46.292Z,1.53
2022-12-19T11:01:31.911Z,1.87
2022-12-19T11:04:30.251Z,2.14
2022-12-19T11:07:18.943Z,2.47
2022-12-19T11:09:53.782Z,2.66
2022-12-19T11:15:25.651Z,2.84
2022-12-19T11:16:22.940Z,2.82
2022-12-19T11:26:32.509Z,3.01
2022-12-19T11:29:44.346Z,2.99
2022-12-19T11:30:37.983Z,2.97
2022-12-19T11:30:47.266Z,3.27
2022-12-19T11:33:18.883Z,4.26
2022-12-19T11:35:55.086Z,4.27
2022-12-19T11:38:42.149Z,4.21
2022-12-19T11:41:17.299Z,4.64
2022-12-19T11:43:59.043Z,4.76
2022-12-19T11:46:40.598Z,4.69
2022-12-19T11:49:27.103Z,5.16
2022-12-19T11:51:57.724Z,5.42
2022-12-19T11:55:02.001Z,5.78
2022-12-19T11:57:30.119Z,6.26
2022-12-19T12:00:05.475Z,6.47
2022-12-19T12:03:06.197Z,6.67
2022-12-19T12:06:26.653Z,6.73
2022-12-19T12:11:47.622Z,7.06
2022-12-19T12:18:53.376Z,7.32
2022-12-19T12:23:27.186Z,7.30
2022-12-19T12:30:59.575Z,7.36
2022-12-19T12:31:15.426Z,7.29
2022-12-19T12:31:55.169Z,7.45
2022-12-19T12:32:05.068Z,7.59
2022-12-19T12:35:38.190Z,8.09
2022-12-19T12:35:51.084Z,7.87
2022-12-19T12:38:22.999Z,8.21
2022-12-19T12:41:21.647Z,8.41
2022-12-19T12:44:08.541Z,8.32
2022-12-19T12:47:01.553Z,8.67
2022-12-19T12:49:45.320Z,8.79
2022-12-19T12:52:18.736Z,8.83
2022-12-19T12:54:55.390Z,8.81
2022-12-19T12:57:36.865Z,8.73
2022-12-19T13:00:22.297Z,8.36
2022-12-19T13:03:09.899Z,8.29
2022-12-19T13:06:33.172Z,8.38
2022-12-19T13:09:28.515Z,8.41
2022-12-19T13:12:19.638Z,8.50
2022-12-19T13:15:17.055Z,8.65
2022-12-19T13:19:28.273Z,8.49
2022-12-19T13:22:26.433Z,8.64
2022-12-19T13:25:29.400Z,8.59
2022-12-19T13:28:59.981Z,8.32
2022-12-19T13:32:23.318Z,8.06
2022-12-19T13:39:51.037Z,7.98
2022-12-19T13:45:15.110Z,7.90
2022-12-19T13:48:04.187Z,7.91
2022-12-19T13:51:54.482Z,7.81
2022-12-19T13:57:09.280Z,6.81
2022-12-19T14:00:18.056Z,5.80
2022-12-19T14:03:37.838Z,4.64
2022-12-19T14:07:51.706Z,3.78
2022-12-19T14:11:35.089Z,2.87
2022-12-19T14:14:28.093Z,2.31
2022-12-19T14:17:42.393Z,1.55
2022-12-19T14:22:01.868Z,1.01
2022-12-19T14:23:44.256Z,0.41
2022-12-19T14:28:17.936Z,-0.29
2022-12-19T14:30:26.129Z,-0.62
2022-12-19T14:33:44.055Z,-0.83
2022-12-19T14:36:06.874Z,-1.02
2022-12-19T14:39:36.685Z,-1.26
2022-12-19T14:43:57.044Z,-1.45
2022-12-19T14:54:05.913Z,-1.74
2022-12-19T14:54:33.979Z,-2.21
2022-12-19T14:57:03.806Z,-2.43
2022-12-19T14:59:48.031Z,-2.55
2022-12-19T15:02:34.359Z,-2.67
2022-12-19T15:05:36.497Z,-2.77
2022-12-19T15:08:17.252Z,-2.91
2022-12-19T15:11:34.891Z,-3.04
2022-12-19T15:14:54.786Z,-3.16
2022-12-19T15:17:44.372Z,-3.32
2022-12-19T15:20:29.375Z,-3.44
2022-12-19T15:23:04.839Z,-3.52
2022-12-19T15:26:07.688Z,-3.61
2022-12-19T15:28:41.923Z,-3.71
2022-12-19T15:31:38.572Z,-3.76
2022-12-19T15:34:38.374Z,-3.86
2022-12-19T15:37:23.245Z,-3.96
2022-12-19T15:39:55.404Z,-4.03
2022-12-19T15:43:29.959Z,-4.06
2022-12-19T15:46:16.671Z,-4.15
2022-12-19T15:50:18.351Z,-4.24
2022-12-19T15:57:09.627Z,-4.42
2022-12-19T16:06:30.135Z,-4.49
2022-12-19T16:08:58.513Z,-4.48
2022-12-19T16:11:26.344Z,-4.50
2022-12-19T16:13:57.983Z,-4.55
2022-12-19T16:16:25.827Z,-4.60
2022-12-19T16:18:53.712Z,-4.67
2022-12-19T16:21:31.542Z,-4.74
2022-12-19T16:24:01.702Z,-4.81
2022-12-19T16:26:40.331Z,-4.86
2022-12-19T16:29:20.335Z,-4.91
2022-12-19T16:31:48.725Z,-4.97
2022-12-19T16:34:19.589Z,-5.03
2022-12-19T16:36:47.924Z,-5.09
2022-12-19T16:39:16.459Z,-5.12
2022-12-19T16:41:45.430Z,-5.18
2022-12-19T16:44:19.927Z,-5.24
2022-12-19T16:46:51.270Z,-5.25
2022-12-19T16:49:23.505Z,-5.30
2022-12-19T16:51:52.107Z,-5.32
2022-12-19T16:54:20.196Z,-5.36
2022-12-19T16:56:51.608Z,-5.36
2022-12-19T16:59:25.718Z,-5.39
2022-12-19T17:01:54.135Z,-5.45
2022-12-19T17:04:24.528Z,-5.48
2022-12-19T17:06:54.254Z,-5.50
2022-12-19T17:09:24.494Z,-5.54
2022-12-19T17:11:58.016Z,-5.53
2022-12-19T17:14:29.631Z,-5.52
2022-12-19T17:16:59.465Z,-5.55
2022-12-19T17:19:35.928Z,-5.58
2022-12-19T17:22:03.694Z,-5.60
2022-12-19T17:24:31.494Z,-5.55
2022-12-19T17:26:59.199Z,-5.48
2022-12-19T17:29:26.963Z,-5.48
2022-12-19T17:31:55.301Z,-5.49
2022-12-19T17:34:30.356Z,-5.50
2022-12-19T17:37:00.548Z,-5.49
2022-12-19T17:39:31.974Z,-5.46
2022-12-19T17:42:06.795Z,-5.46
2022-12-19T17:44:34.512Z,-5.46
2022-12-19T17:47:02.386Z,-5.46
2022-12-19T17:49:31.649Z,-5.46
2022-12-19T17:52:00.257Z,-5.43
2022-12-19T17:54:27.972Z,-5.36
2022-12-19T17:56:55.861Z,-5.28
2022-12-19T17:59:23.618Z,-5.23
2022-12-19T18:01:51.717Z,-5.18
2022-12-19T18:04:21.573Z,-5.13
2022-12-19T18:06:49.564Z,-5.08
2022-12-19T18:09:20.395Z,-5.03
2022-12-19T18:11:49.593Z,-5.00
2022-12-19T18:14:18.391Z,-4.98
2022-12-19T18:16:49.134Z,-4.96
2022-12-19T18:19:23.450Z,-4.93
2022-12-19T18:21:51.915Z,-4.89
2022-12-19T18:24:19.754Z,-4.87
2022-12-19T18:26:47.827Z,-4.85
2022-12-19T18:29:16.607Z,-4.83
2022-12-19T18:31:50.469Z,-4.83
2022-12-19T18:34:22.955Z,-4.87
2022-12-19T18:36:51.867Z,-4.94
2022-12-19T18:39:29.105Z,-5.01
2022-12-19T18:41:56.862Z,-5.07
2022-12-19T18:44:24.661Z,-5.11
2022-12-19T18:46:52.971Z,-5.12
2022-12-19T18:49:20.964Z,-5.07
2022-12-19T18:51:48.779Z,-4.96
2022-12-19T18:54:20.084Z,-4.88
2022-12-19T18:56:48.432Z,-4.83
2022-12-19T18:59:16.200Z,-4.79
2022-12-19T19:01:47.837Z,-4.74
2022-12-19T19:04:17.770Z,-4.70
2022-12-19T19:06:51.706Z,-4.67
2022-12-19T19:09:21.358Z,-4.63
2022-12-19T19:12:09.113Z,-4.62
2022-12-19T19:14:36.944Z,-4.62
2022-12-19T19:17:06.409Z,-4.61
2022-12-19T19:19:34.253Z,-4.56
2022-12-19T19:22:02.120Z,-4.50
2022-12-19T19:24:30.080Z,-4.46
2022-12-19T19:26:57.850Z,-4.44
2022-12-19T19:29:26.114Z,-4.38
2022-12-19T19:31:53.971Z,-4.33
2022-12-19T19:34:27.439Z,-4.27
2022-12-19T19:36:59.115Z,-4.19
2022-12-19T19:39:28.529Z,-4.17
2022-12-19T19:41:56.446Z,-4.17
2022-12-19T19:44:24.273Z,-4.17
2022-12-19T19:46:52.102Z,-4.17
2022-12-19T19:49:20.862Z,-4.17
2022-12-19T19:51:48.649Z,-4.15
2022-12-19T19:54:16.599Z,-4.11
2022-12-19T19:56:44.298Z,-4.06
2022-12-19T19:59:12.149Z,-4.01
2022-12-19T20:01:40.229Z,-3.96
2022-12-19T20:04:08.109Z,-3.89
2022-12-19T20:06:36.211Z,-3.86
2022-12-19T20:09:04.364Z,-3.84
2022-12-19T20:11:32.271Z,-3.82
2022-12-19T20:14:00.072Z,-3.82
2022-12-19T20:16:28.195Z,-3.85
2022-12-19T20:18:56.018Z,-3.94
2022-12-19T20:21:24.721Z,-4.04
2022-12-19T20:23:56.664Z,-4.15
2022-12-19T20:26:24.522Z,-4.23
2022-12-19T20:28:52.363Z,-4.39
2022-12-19T20:31:23.150Z,-4.50
2022-12-19T20:33:53.581Z,-4.59
2022-12-19T20:36:22.625Z,-4.62
2022-12-19T20:38:50.816Z,-4.66
2022-12-19T20:41:19.421Z,-4.71
2022-12-19T20:43:48.153Z,-4.73
2022-12-19T20:46:18.477Z,-4.74
2022-12-19T20:48:47.745Z,-4.73
2022-12-19T20:51:16.727Z,-4.70
2022-12-19T20:53:45.045Z,-4.64
2022-12-19T20:56:17.619Z,-4.58
2022-12-19T20:58:46.204Z,-4.52
2022-12-19T21:01:18.305Z,-4.44
2022-12-19T21:03:48.296Z,-4.41
2022-12-19T21:06:19.803Z,-4.36
2022-12-19T21:08:48.354Z,-4.35
2022-12-19T21:11:16.236Z,-4.40
2022-12-19T21:13:44.675Z,-4.44
2022-12-19T21:16:16.448Z,-4.47
2022-12-19T21:18:45.893Z,-4.51
2022-12-19T21:21:18.099Z,-4.56
2022-12-19T21:23:46.157Z,-4.61
2022-12-19T21:26:14.147Z,-4.66
2022-12-19T21:28:42.067Z,-4.71
2022-12-19T21:31:25.049Z,-4.77
2022-12-19T21:33:55.487Z,-4.83
2022-12-19T21:36:25.089Z,-4.86
2022-12-19T21:38:55.900Z,-4.90
2022-12-19T21:41:24.119Z,-4.92
2022-12-19T21:43:54.125Z,-4.94
2022-12-19T21:46:26.513Z,-4.95
2022-12-19T21:48:56.186Z,-4.94
2022-12-19T21:51:27.988Z,-4.89
2022-12-19T21:53:58.277Z,-4.86
2022-12-19T21:56:31.986Z,-4.83
2022-12-19T21:59:03.209Z,-4.79
2022-12-19T22:01:32.724Z,-4.69
2022-12-19T22:04:03.474Z,-4.58
2022-12-19T22:06:33.747Z,-4.47
2022-12-19T22:09:02.749Z,-4.39
2022-12-19T22:11:31.349Z,-4.29
2022-12-19T22:14:01.015Z,-4.22
2022-12-19T22:16:29.264Z,-4.17
2022-12-19T22:18:57.443Z,-4.13
2022-12-19T22:21:25.728Z,-4.08
2022-12-19T22:23:58.364Z,-4.06
2022-12-19T22:26:28.827Z,-4.03
2022-12-19T22:28:57.893Z,-4.01
2022-12-19T22:31:34.607Z,-4.00
2022-12-19T22:34:05.777Z,-4.12
2022-12-19T22:36:35.954Z,-4.28
2022-12-19T22:39:09.034Z,-4.45
2022-12-19T22:41:38.280Z,-4.66
2022-12-19T22:44:06.779Z,-4.89
2022-12-19T22:46:37.044Z,-5.08
2022-12-19T22:49:07.328Z,-5.26
2022-12-19T22:51:36.963Z,-5.43
2022-12-19T22:54:05.800Z,-5.60
2022-12-19T22:56:34.699Z,-5.74
2022-12-19T22:59:06.144Z,-5.85
2022-12-19T23:01:38.125Z,-5.94
2022-12-19T23:04:08.199Z,-6.03
2022-12-19T23:06:37.674Z,-6.11
2022-12-19T23:09:08.508Z,-6.15
2022-12-19T23:11:39.012Z,-6.17
2022-12-19T23:14:10.050Z,-6.20
2022-12-19T23:16:37.969Z,-6.19
2022-12-19T23:19:06.634Z,-6.16
2022-12-19T23:21:35.269Z,-6.14
2022-12-19T23:24:03.432Z,-6.12
2022-12-19T23:26:35.589Z,-6.08
2022-12-19T23:29:07.353Z,-6.03
2022-12-19T23:31:38.629Z,-5.97
2022-12-19T23:34:06.482Z,-5.88
2022-12-19T23:39:22.293Z,-5.76
2022-12-19T23:41:50.165Z,-5.70
2022-12-19T23:44:18.168Z,-5.73
2022-12-19T23:46:46.039Z,-5.93
2022-12-19T23:49:14.218Z,-6.08
2022-12-19T23:51:42.089Z,-6.17
2022-12-19T23:54:10.047Z,-6.27
2022-12-19T23:56:37.886Z,-6.40
2022-12-19T23:59:05.872Z,-6.46
